Time;durP1;ratioP1;P1;durP2;ratioP2;P2;SDS_P1;SDS_P2;PMS_P1;PMS_P2;Temp;Humidity;BMP_temperature;BMP_pressure;BME280_temperature;BME280_humidity;BME280_pressure;Samples;Min_cycle;Max_cycle;Signal;HPM_P1;HPM_P2
2023/06/17 00:02:05;;;;;;;9.10;7.30;;;;;;;18.55;62.26;98933.05;107071;1263;60462;-40
2023/06/17 00:04:33;;;;;;;8.40;6.70;;;;;;;18.50;62.11;98931.70;107208;1263;60405;-40
2023/06/17 00:07:01;;;;;;;13.90;7.60;;;;;;;18.50;62.21;98931.96;107026;1258;72631;-40
2023/06/17 00:09:28;;;;;;;11.20;7.00;;;;;;;18.51;61.83;98931.23;107057;1263;67619;-40
2023/06/17 00:12:02;;;;;;;11.10;7.40;;;;;;;18.49;61.85;98926.64;107076;1263;72702;-40
2023/06/17 00:14:29;;;;;;;10.20;8.00;;;;;;;18.46;61.89;98928.59;107100;1257;60536;-40
2023/06/17 00:16:59;;;;;;;9.30;7.80;;;;;;;18.44;62.11;98929.81;107196;1257;60502;-40
2023/06/17 00:19:28;;;;;;;9.60;7.20;;;;;;;18.42;62.09;98930.79;107149;1258;73152;-40
2023/06/17 00:21:56;;;;;;;11.80;7.40;;;;;;;18.39;62.26;98926.47;107165;1263;67929;-40
2023/06/17 00:24:23;;;;;;;9.20;7.70;;;;;;;18.36;62.40;98927.06;107221;1262;72469;-40
2023/06/17 00:26:51;;;;;;;9.30;7.40;;;;;;;18.32;62.48;98926.98;107268;1263;60473;-40
2023/06/17 00:29:19;;;;;;;10.30;7.30;;;;;;;18.26;62.43;98924.81;107031;1260;60281;-39
2023/06/17 00:31:46;;;;;;;9.90;7.50;;;;;;;18.21;62.47;98927.73;106978;1267;72559;-38
2023/06/17 00:34:14;;;;;;;13.70;7.70;;;;;;;18.17;62.56;98924.21;106906;1258;68099;-39
2023/06/17 00:36:42;;;;;;;10.70;6.70;;;;;;;18.18;62.20;98922.70;107160;1257;71442;-39
2023/06/17 00:39:09;;;;;;;15.90;7.80;;;;;;;18.20;62.11;98924.06;107018;1261;60574;-40
2023/06/17 00:41:38;;;;;;;10.90;7.70;;;;;;;18.19;61.80;98918.69;107157;1258;60389;-40
2023/06/17 00:44:06;;;;;;;10.00;7.10;;;;;;;18.17;61.47;98918.33;106984;1263;73830;-40
2023/06/17 00:46:41;;;;;;;9.80;7.30;;;;;;;18.14;61.42;98918.70;107094;1263;66423;-40
2023/06/17 00:49:12;;;;;;;9.60;7.50;;;;;;;18.12;61.44;98915.67;107236;1263;72701;-41
2023/06/17 00:51:39;;;;;;;12.10;8.30;;;;;;;18.10;61.20;98920.27;107042;1263;60441;-41
2023/06/17 00:54:08;;;;;;;10.90;7.50;;;;;;;18.06;61.11;98919.71;107088;1257;60403;-41
2023/06/17 00:56:37;;;;;;;9.70;7.20;;;;;;;18.02;60.96;98919.08;106962;1257;72583;-40
2023/06/17 00:59:05;;;;;;;9.40;7.40;;;;;;;17.98;61.13;98916.80;107216;1263;67576;-40
2023/06/17 01:01:35;;;;;;;8.80;7.70;;;;;;;17.94;61.03;98913.20;107017;1263;71405;-40
2023/06/17 01:04:04;;;;;;;12.30;7.80;;;;;;;17.89;61.04;98915.32;107078;1258;60248;-39
2023/06/17 01:06:50;;;;;;;10.90;7.70;;;;;;;17.85;61.27;98911.25;107073;1258;60289;-40
2023/06/17 01:09:20;;;;;;;12.60;7.90;;;;;;;17.80;61.41;98913.83;107194;1257;72640;-40
2023/06/17 01:11:51;;;;;;;11.20;7.50;;;;;;;17.74;61.35;98913.46;107263;1258;66634;-40
2023/06/17 01:14:20;;;;;;;9.90;7.00;;;;;;;17.70;61.41;98910.31;106998;1260;72761;-40
2023/06/17 01:16:50;;;;;;;7.40;6.20;;;;;;;17.72;61.30;98911.38;107112;1260;61691;-40
2023/06/17 01:19:21;;;;;;;9.50;6.90;;;;;;;17.76;61.20;98911.08;107209;1257;60501;-40
2023/06/17 01:21:51;;;;;;;11.50;7.40;;;;;;;17.75;61.19;98913.75;107324;1257;72574;-39
2023/06/17 01:24:28;;;;;;;9.20;7.60;;;;;;;17.75;61.21;98914.07;107213;1258;66610;-40
2023/06/17 01:26:57;;;;;;;11.60;7.40;;;;;;;17.74;61.29;98910.25;107065;1263;72661;-40
2023/06/17 01:29:26;;;;;;;10.20;7.80;;;;;;;17.73;61.32;98912.77;107283;1258;60293;-41
2023/06/17 01:31:57;;;;;;;9.30;6.90;;;;;;;17.71;61.27;98914.60;107318;1257;60475;-40
2023/06/17 01:34:49;;;;;;;10.00;7.10;;;;;;;17.70;61.02;98907.97;107287;1257;73887;-40
2023/06/17 01:37:22;;;;;;;10.00;7.50;;;;;;;17.67;61.09;98910.77;107160;1257;67611;-40
2023/06/17 01:39:50;;;;;;;10.30;7.70;;;;;;;17.63;61.33;98911.06;107177;1261;72570;-39
2023/06/17 01:42:27;;;;;;;9.40;7.90;;;;;;;17.60;61.63;98913.23;107042;1257;60396;-39
2023/06/17 01:44:55;;;;;;;9.40;7.70;;;;;;;17.58;61.67;98913.31;107284;1261;60498;-40
2023/06/17 01:47:22;;;;;;;11.20;7.60;;;;;;;17.54;61.65;98908.36;107092;1258;73875;-40
2023/06/17 01:49:50;;;;;;;11.70;7.00;;;;;;;17.51;61.83;98910.45;107068;1257;66795;-39
2023/06/17 01:52:17;;;;;;;8.40;7.40;;;;;;;17.52;61.80;98908.48;107050;1257;71417;-40
2023/06/17 01:54:45;;;;;;;10.00;7.40;;;;;;;17.56;61.83;98908.27;107222;1258;60398;-40
2023/06/17 01:57:13;;;;;;;8.90;7.50;;;;;;;17.57;61.91;98910.20;107175;1257;60761;-39
2023/06/17 01:59:40;;;;;;;11.90;7.90;;;;;;;17.57;61.94;98914.02;107066;1257;73844;-40
2023/06/17 02:02:08;;;;;;;11.10;8.10;;;;;;;17.57;61.93;98914.66;107109;1258;67923;-42
2023/06/17 02:04:37;;;;;;;14.20;8.20;;;;;;;17.56;61.98;98912.48;107221;1258;71436;-40
2023/06/17 02:07:04;;;;;;;8.00;7.10;;;;;;;17.55;62.02;98914.53;107070;1257;60090;-40
2023/06/17 02:09:32;;;;;;;11.20;7.90;;;;;;;17.54;61.71;98911.19;107125;1257;60594;-40
2023/06/17 02:12:00;;;;;;;10.20;7.50;;;;;;;17.52;61.68;98912.25;107154;1257;72865;-39
2023/06/17 02:14:33;;;;;;;10.70;8.00;;;;;;;17.50;61.83;98913.60;107089;1261;67552;-41
2023/06/17 02:17:04;;;;;;;11.50;7.50;;;;;;;17.48;61.93;98908.77;107058;1258;70942;-43
2023/06/17 02:19:32;;;;;;;10.10;8.10;;;;;;;17.46;61.94;98908.67;107070;1258;60762;-40
2023/06/17 02:22:00;;;;;;;13.00;7.60;;;;;;;17.43;62.13;98909.41;107164;1258;60572;-41
2023/06/17 02:24:27;;;;;;;10.00;7.60;;;;;;;17.44;62.26;98908.92;106917;1257;72681;-40
2023/06/17 02:26:56;;;;;;;9.80;7.50;;;;;;;17.48;62.63;98910.42;107132;1257;67906;-40
2023/06/17 02:29:27;;;;;;;10.70;7.70;;;;;;;17.51;63.33;98911.39;107099;1262;72685;-44
2023/06/17 02:31:55;;;;;;;9.50;7.30;;;;;;;17.53;63.59;98911.20;107049;1257;61750;-41
2023/06/17 02:34:23;;;;;;;10.00;7.30;;;;;;;17.55;63.57;98911.17;107082;1256;60456;-41
2023/06/17 02:36:51;;;;;;;10.30;7.50;;;;;;;17.57;63.44;98909.89;107121;1260;73830;-40
2023/06/17 02:39:19;;;;;;;11.50;8.60;;;;;;;17.59;63.57;98910.56;107186;1257;66275;-41
2023/06/17 02:41:47;;;;;;;9.70;7.80;;;;;;;17.61;63.74;98907.65;107375;1254;73893;-40
2023/06/17 02:44:15;;;;;;;10.20;7.60;;;;;;;17.61;63.65;98909.06;107446;1253;60757;-41
2023/06/17 02:46:43;;;;;;;8.30;6.60;;;;;;;17.67;63.55;98912.80;107276;1254;60470;-39
2023/06/17 02:49:13;;;;;;;10.00;7.20;;;;;;;17.76;63.95;98914.44;107324;1254;72881;-39
2023/06/17 02:51:41;;;;;;;10.90;8.20;;;;;;;17.83;64.45;98914.33;107282;1254;67769;-40
2023/06/17 02:54:10;;;;;;;10.40;7.50;;;;;;;17.86;64.48;98915.45;107354;1254;71398;-40
2023/06/17 02:56:38;;;;;;;11.50;8.40;;;;;;;17.90;64.35;98916.00;107297;1254;60383;-39
2023/06/17 02:59:08;;;;;;;11.70;8.40;;;;;;;17.95;63.63;98917.80;107497;1254;60284;-39
2023/06/17 03:01:39;;;;;;;9.70;7.90;;;;;;;17.98;63.16;98916.64;107449;1254;72602;-39
2023/06/17 03:04:08;;;;;;;9.30;7.80;;;;;;;18.02;63.08;98917.98;107482;1254;67006;-40
2023/06/17 03:06:36;;;;;;;12.30;7.90;;;;;;;18.05;63.08;98916.43;107409;1254;72657;-39
2023/06/17 03:09:04;;;;;;;9.90;8.10;;;;;;;18.08;62.99;98921.70;107382;1254;60424;-39
2023/06/17 03:11:32;;;;;;;11.00;7.90;;;;;;;18.11;62.71;98926.05;107421;1257;60827;-39
2023/06/17 03:14:00;;;;;;;11.20;7.30;;;;;;;18.14;62.10;98923.79;107395;1254;73979;-39
2023/06/17 03:16:31;;;;;;;10.20;7.90;;;;;;;18.17;61.45;98925.94;107572;1254;66300;-39
2023/06/17 03:19:00;;;;;;;11.50;8.50;;;;;;;18.20;61.04;98927.05;107454;1254;71899;-39
2023/06/17 03:21:30;;;;;;;13.40;8.90;;;;;;;18.25;60.92;98927.43;107513;1254;60508;-39
2023/06/17 03:23:58;;;;;;;10.70;8.10;;;;;;;18.29;60.69;98928.53;107602;1254;60335;-39
2023/06/17 03:26:27;;;;;;;9.80;8.00;;;;;;;18.36;60.19;98926.35;107467;1254;72554;-39
2023/06/17 03:28:56;;;;;;;11.60;8.00;;;;;;;18.46;59.87;98930.23;107467;1254;67550;-39
2023/06/17 03:31:24;;;;;;;11.80;8.50;;;;;;;18.55;59.41;98928.27;107606;1257;72641;-39
2023/06/17 03:33:52;;;;;;;10.60;8.40;;;;;;;18.62;59.19;98927.80;107519;1254;60203;-39
2023/06/17 03:36:24;;;;;;;10.70;7.80;;;;;;;18.72;58.96;98929.42;107387;1254;59585;-39
2023/06/17 03:38:52;;;;;;;12.70;9.40;;;;;;;18.80;58.54;98929.71;107496;1255;73848;-39
2023/06/17 03:41:21;;;;;;;10.90;9.10;;;;;;;18.89;58.09;98932.52;107492;1254;66609;-39
2023/06/17 03:43:49;;;;;;;13.00;8.20;;;;;;;18.93;57.51;98925.13;107612;1254;72955;-39
2023/06/17 03:46:18;;;;;;;9.90;8.20;;;;;;;19.02;57.18;98925.39;107391;1258;60561;-40
2023/06/17 03:48:46;;;;;;;14.60;8.70;;;;;;;19.10;57.03;98925.92;107634;1254;60376;-38
2023/06/17 03:51:13;;;;;;;10.00;8.20;;;;;;;19.17;56.88;98925.37;107425;1254;73906;-40
2023/06/17 03:53:41;;;;;;;12.80;8.90;;;;;;;19.24;56.78;98925.06;107493;1254;67601;-40
2023/06/17 03:56:09;;;;;;;11.40;8.10;;;;;;;19.29;56.61;98924.84;107645;1254;71969;-39
2023/06/17 03:58:38;;;;;;;12.10;7.70;;;;;;;19.36;56.93;98925.40;107543;1254;61185;-40
2023/06/17 04:01:12;;;;;;;12.50;8.00;;;;;;;19.43;57.05;98922.89;107585;1254;60428;-39
2023/06/17 04:03:41;;;;;;;10.80;8.10;;;;;;;19.49;57.14;98922.13;107660;1254;73890;-40
2023/06/17 04:06:10;;;;;;;10.80;7.70;;;;;;;19.56;57.06;98922.05;107521;1254;68157;-39
2023/06/17 04:08:41;;;;;;;15.10;7.00;;;;;;;19.63;57.14;98920.53;107484;1258;71647;-39
2023/06/17 04:11:09;;;;;;;12.60;7.60;;;;;;;19.70;56.76;98922.48;107560;1254;60385;-39
2023/06/17 04:13:37;;;;;;;8.90;7.50;;;;;;;19.78;56.57;98923.86;107667;1254;60395;-40
2023/06/17 04:16:05;;;;;;;11.10;7.00;;;;;;;19.86;56.59;98925.45;107583;1254;73842;-39
2023/06/17 04:18:33;;;;;;;10.00;7.40;;;;;;;19.96;56.51;98924.66;107600;1254;65449;-40
2023/06/17 04:21:01;;;;;;;12.70;8.10;;;;;;;20.05;56.20;98925.20;107512;1253;72657;-39
2023/06/17 04:23:31;;;;;;;12.30;7.70;;;;;;;20.15;56.04;98924.16;107603;1253;60087;-40
2023/06/17 04:26:00;;;;;;;10.90;7.40;;;;;;;20.23;55.54;98925.09;107611;1254;60281;-39
2023/06/17 04:28:31;;;;;;;11.90;7.50;;;;;;;20.33;55.72;98926.50;107648;1254;75112;-39
2023/06/17 04:31:01;;;;;;;11.80;7.30;;;;;;;20.43;55.80;98925.92;107520;1253;67597;-40
2023/06/17 04:33:37;;;;;;;10.60;7.80;;;;;;;20.52;55.14;98926.70;107210;1253;70435;-40
2023/06/17 04:36:08;;;;;;;9.80;7.70;;;;;;;20.62;54.79;98922.70;107509;1253;59631;-41
2023/06/17 04:38:37;;;;;;;10.00;7.50;;;;;;;20.72;54.68;98925.67;107411;1254;60402;-39
2023/06/17 04:41:05;;;;;;;10.40;7.00;;;;;;;20.82;54.48;98933.00;107518;1253;74186;-40
2023/06/17 04:43:36;;;;;;;11.70;7.80;;;;;;;20.92;54.13;98931.27;107435;1254;67747;-40
2023/06/17 04:46:08;;;;;;;11.40;7.10;;;;;;;21.03;53.68;98927.55;107564;1254;72701;-39
2023/06/17 04:48:37;;;;;;;;;;;;;;;21.13;53.14;98923.64;107392;1254;59659;-39
2023/06/17 04:51:08;;;;;;;9.00;6.90;;;;;;;21.19;53.25;98925.84;107543;1254;59579;-40
2023/06/17 04:53:39;;;;;;;8.90;7.00;;;;;;;21.26;54.00;98927.67;107448;1254;72546;-39
2023/06/17 04:56:07;;;;;;;10.80;7.60;;;;;;;21.37;54.03;98931.91;107537;1254;66805;-39
2023/06/17 04:58:36;;;;;;;10.20;7.40;;;;;;;21.46;54.13;98931.59;107350;1254;71549;-40
2023/06/17 05:01:10;;;;;;;10.20;7.10;;;;;;;21.55;53.99;98932.55;107509;1254;60485;-40
2023/06/17 05:03:39;;;;;;;7.60;6.70;;;;;;;21.66;53.08;98930.55;107504;1254;60339;-40
2023/06/17 05:06:07;;;;;;;11.20;6.40;;;;;;;21.77;52.56;98929.70;107595;1254;73077;-40
2023/06/17 05:08:35;;;;;;;9.50;6.50;;;;;;;21.88;52.28;98931.40;107471;1254;67561;-40
2023/06/17 05:11:02;;;;;;;8.10;6.10;;;;;;;21.97;52.13;98934.89;107590;1254;72655;-40
2023/06/17 05:13:31;;;;;;;7.60;6.00;;;;;;;22.06;51.20;98935.38;107569;1253;60421;-40
2023/06/17 05:16:00;;;;;;;7.70;6.20;;;;;;;22.16;50.31;98937.16;107463;1254;60418;-40
2023/06/17 05:18:29;;;;;;;6.50;5.70;;;;;;;22.26;49.82;98937.85;107584;1254;73844;-40
2023/06/17 05:20:57;;;;;;;8.40;5.60;;;;;;;22.36;49.38;98939.70;107525;1257;66345;-40
2023/06/17 05:23:25;;;;;;;7.20;5.70;;;;;;;22.45;49.52;98941.17;107578;1254;72739;-41
2023/06/17 05:25:53;;;;;;;7.90;6.30;;;;;;;22.55;49.44;98941.86;107435;1252;60424;-40
2023/06/17 05:28:21;;;;;;;7.70;5.90;;;;;;;22.64;49.32;98942.94;107300;1254;60431;-39
2023/06/17 05:30:49;;;;;;;7.30;5.60;;;;;;;22.75;49.21;98948.09;107482;1254;72689;-40
2023/06/17 05:33:19;;;;;;;11.50;6.00;;;;;;;22.84;48.54;98951.39;107535;1254;67580;-40
2023/06/17 05:35:48;;;;;;;7.00;5.60;;;;;;;22.93;48.55;98952.45;107371;1254;72809;-40
2023/06/17 05:38:15;;;;;;;6.90;5.70;;;;;;;23.03;48.39;98951.08;107365;1254;60376;-39
2023/06/17 05:40:43;;;;;;;8.30;5.80;;;;;;;23.12;48.07;98950.23;107566;1253;60475;-40
2023/06/17 05:43:11;;;;;;;10.10;5.50;;;;;;;23.22;47.79;98952.46;107617;1254;72577;-39
2023/06/17 05:45:39;;;;;;;6.00;5.30;;;;;;;23.31;47.55;98952.48;107432;1254;66411;-40
2023/06/17 05:48:07;;;;;;;9.70;5.80;;;;;;;23.42;47.16;98956.64;107552;1254;71852;-39
2023/06/17 05:50:35;;;;;;;6.00;5.10;;;;;;;23.54;46.21;98959.92;107584;1253;60405;-40
2023/06/17 05:53:03;;;;;;;5.80;5.20;;;;;;;23.65;45.43;98961.53;107574;1255;60488;-40
2023/06/17 05:55:30;;;;;;;6.40;5.30;;;;;;;23.75;44.79;98961.66;107521;1254;73469;-40
2023/06/17 05:57:58;;;;;;;7.60;5.00;;;;;;;23.86;44.44;98959.40;107455;1258;67909;-40
2023/06/17 06:00:26;;;;;;;9.50;5.10;;;;;;;23.96;44.10;98958.77;107494;1254;72670;-40
2023/06/17 06:02:54;;;;;;;5.80;4.50;;;;;;;24.05;43.71;98957.42;107534;1254;60402;-40
2023/06/17 06:05:22;;;;;;;5.90;4.60;;;;;;;24.14;43.05;98959.65;107502;1254;60342;-40
2023/06/17 06:07:50;;;;;;;5.10;4.60;;;;;;;24.24;42.67;98952.52;107443;1254;72569;-40
2023/06/17 06:10:18;;;;;;;6.90;4.40;;;;;;;24.35;41.63;98956.48;107504;1254;67888;-40
2023/06/17 06:12:50;;;;;;;6.10;4.70;;;;;;;24.44;40.64;98951.25;107329;1259;72708;-40
2023/06/17 06:15:18;;;;;;;5.20;4.70;;;;;;;24.49;40.42;98950.69;107488;1254;60434;-39
2023/06/17 06:17:45;;;;;;;7.00;4.50;;;;;;;24.60;40.33;98954.86;107466;1254;60224;-41
2023/06/17 06:20:13;;;;;;;5.20;4.70;;;;;;;24.70;40.37;98953.89;107451;1259;72761;-40
2023/06/17 06:22:40;;;;;;;6.60;4.90;;;;;;;24.78;40.61;98959.30;107418;1254;66754;-40
2023/06/17 06:25:08;;;;;;;6.70;4.50;;;;;;;24.87;39.99;98957.17;107501;1254;72787;-40
2023/06/17 06:27:36;;;;;;;5.90;5.00;;;;;;;24.96;39.81;98958.11;107536;1253;60300;-40
2023/06/17 06:30:05;;;;;;;6.10;4.70;;;;;;;25.03;40.74;98954.05;107572;1254;60501;-40
2023/06/17 06:32:36;;;;;;;7.60;4.70;;;;;;;25.10;40.85;98956.59;107334;1253;73839;-40
2023/06/17 06:35:05;;;;;;;5.20;4.60;;;;;;;25.17;39.02;98954.45;107389;1254;66361;-40
2023/06/17 06:37:33;;;;;;;6.40;4.80;;;;;;;25.24;38.00;98954.58;107418;1254;73166;-40
2023/06/17 06:40:01;;;;;;;5.40;4.90;;;;;;;25.30;38.10;98957.33;107419;1254;61063;-39
2023/06/17 06:42:30;;;;;;;6.10;5.50;;;;;;;25.36;39.10;98953.05;107487;1254;59292;-39
2023/06/17 06:45:18;;;;;;;6.20;5.40;;;;;;;25.45;39.16;98956.77;107437;1254;72564;-39
2023/06/17 06:47:46;;;;;;;6.30;5.30;;;;;;;25.49;38.85;98955.97;107516;1254;67566;-39
2023/06/17 06:50:14;;;;;;;6.30;5.20;;;;;;;25.57;38.46;98958.83;107418;1256;71401;-40
2023/06/17 06:52:41;;;;;;;7.20;5.70;;;;;;;25.63;38.89;98957.92;107477;1254;60411;-40
2023/06/17 06:55:09;;;;;;;8.80;6.10;;;;;;;25.69;39.08;98956.42;107391;1253;60390;-40
2023/06/17 06:57:37;;;;;;;6.40;5.40;;;;;;;25.75;38.86;98954.85;107486;1253;74290;-40
2023/06/17 07:00:11;;;;;;;7.00;5.80;;;;;;;25.82;38.85;98956.52;107427;1253;67618;-40
2023/06/17 07:02:40;;;;;;;7.30;5.80;;;;;;;25.92;38.68;98956.73;107451;1258;72680;-40
2023/06/17 07:05:08;;;;;;;6.40;5.60;;;;;;;26.00;38.50;98958.45;107430;1255;60563;-41
2023/06/17 07:07:41;;;;;;;8.30;5.60;;;;;;;26.07;38.81;98956.98;107479;1254;60429;-40
2023/06/17 07:10:09;;;;;;;7.60;5.30;;;;;;;26.12;38.13;98959.79;107468;1254;73901;-40
2023/06/17 07:12:36;;;;;;;7.10;5.30;;;;;;;26.20;37.32;98957.11;107499;1254;67608;-40
2023/06/17 07:15:05;;;;;;;6.50;5.70;;;;;;;26.28;37.29;98960.19;107486;1254;71443;-40
2023/06/17 07:17:33;;;;;;;9.90;5.10;;;;;;;26.38;37.09;98959.55;107430;1253;60382;-40
2023/06/17 07:20:03;;;;;;;7.80;5.20;;;;;;;26.46;36.16;98958.59;107528;1257;60385;-40
2023/06/17 07:22:30;;;;;;;7.40;4.80;;;;;;;26.55;35.91;98963.26;107444;1254;73868;-40
2023/06/17 07:24:59;;;;;;;7.60;5.10;;;;;;;26.64;35.46;98961.25;107423;1254;68016;-40
2023/06/17 07:27:26;;;;;;;6.30;5.10;;;;;;;26.73;35.28;98959.30;107496;1253;71359;-40
2023/06/17 07:29:54;;;;;;;5.90;5.10;;;;;;;26.79;35.90;98961.34;107573;1254;60434;-40
2023/06/17 07:32:22;;;;;;;6.80;4.80;;;;;;;26.88;35.17;98963.82;107494;1254;60268;-40
2023/06/17 07:34:50;;;;;;;6.90;4.90;;;;;;;26.96;34.58;98962.98;107487;1253;73842;-40
2023/06/17 07:37:19;;;;;;;7.00;4.80;;;;;;;27.06;34.03;98962.43;107418;1253;66034;-40
2023/06/17 07:39:48;;;;;;;6.70;5.10;;;;;;;27.19;34.36;98963.61;107418;1254;71386;-40
2023/06/17 07:42:16;;;;;;;7.20;5.20;;;;;;;27.31;33.42;98960.73;107354;1253;175309;-40
2023/06/17 07:45:24;;;;;;;5.30;4.70;;;;;;;27.44;32.52;98959.88;104070;1292;601192;-40
2023/06/17 07:47:51;;;;;;;8.80;5.10;;;;;;;27.53;31.29;98959.21;106584;1269;60096;-39
2023/06/17 07:50:19;;;;;;;5.70;4.60;;;;;;;27.61;31.38;98958.90;106581;1267;60035;-39
2023/06/17 07:52:47;;;;;;;6.10;5.00;;;;;;;27.72;30.45;98957.33;106621;1266;72234;-40
2023/06/17 07:55:14;;;;;;;5.10;4.40;;;;;;;27.83;31.07;98955.91;106683;1266;66296;-40
2023/06/17 07:57:42;;;;;;;7.90;4.60;;;;;;;27.96;31.59;98950.91;106539;1267;72689;-41
2023/06/17 08:00:13;;;;;;;5.80;4.90;;;;;;;28.09;31.55;98952.65;106312;1268;338157;-40
2023/06/17 08:02:42;;;;;;;6.10;5.20;;;;;;;28.20;31.60;98953.66;106720;1264;60592;-40
2023/06/17 08:05:11;;;;;;;6.80;4.60;;;;;;;28.30;29.92;98951.61;106713;1268;72259;-40
2023/06/17 08:07:38;;;;;;;8.30;4.70;;;;;;;28.37;29.53;98953.41;106705;1265;67558;-40
2023/06/17 08:10:07;;;;;;;6.80;4.70;;;;;;;28.43;28.79;98952.31;106678;1266;72675;-40
2023/06/17 08:12:36;;;;;;;6.80;4.50;;;;;;;28.49;29.40;98955.71;106844;1263;59618;-40
2023/06/17 08:15:05;;;;;;;7.40;4.40;;;;;;;28.59;29.39;98957.65;106829;1264;59904;-41
2023/06/17 08:17:33;;;;;;;5.00;4.50;;;;;;;28.69;29.18;98957.80;106921;1264;73048;-40
2023/06/17 08:20:00;;;;;;;5.30;4.30;;;;;;;28.77;29.14;98953.39;106869;1263;67640;-41
2023/06/17 08:22:29;;;;;;;5.80;4.40;;;;;;;28.87;28.34;98950.34;106868;1267;73182;-40
2023/06/17 08:24:56;;;;;;;9.60;4.80;;;;;;;28.97;28.36;98952.61;106888;1260;60138;-40
2023/06/17 08:27:24;;;;;;;6.80;5.20;;;;;;;29.08;28.55;98948.79;106815;1263;60060;-40
2023/06/17 08:29:52;;;;;;;6.90;4.50;;;;;;;29.12;28.53;98950.70;106729;1266;73115;-40
2023/06/17 08:32:20;;;;;;;5.80;4.40;;;;;;;29.17;28.40;98956.18;106794;1261;66304;-40
2023/06/17 08:34:47;;;;;;;5.70;4.90;;;;;;;29.21;28.26;98957.48;106872;1266;72765;-40
2023/06/17 08:37:15;;;;;;;5.70;5.10;;;;;;;29.24;28.72;98957.34;106999;1261;59355;-40
2023/06/17 08:39:43;;;;;;;6.10;4.60;;;;;;;29.31;28.60;98953.36;106889;1265;59497;-40
2023/06/17 08:42:10;;;;;;;6.10;4.60;;;;;;;29.36;28.47;98954.56;107015;1261;71861;-40
2023/06/17 08:44:42;;;;;;;5.40;4.70;;;;;;;29.31;28.06;98955.09;106999;1261;66361;-40
2023/06/17 08:47:13;;;;;;;5.30;4.80;;;;;;;29.17;28.25;98955.16;107034;1264;72689;-40
2023/06/17 08:49:43;;;;;;;5.50;4.80;;;;;;;29.04;28.56;98953.06;106988;1266;60061;-40
2023/06/17 08:52:11;;;;;;;;;;;;;;;28.93;28.61;98960.70;106950;1263;60105;-40
2023/06/17 08:54:40;;;;;;;7.50;4.80;;;;;;;28.77;29.07;98957.30;106935;1266;73036;-40
2023/06/17 08:57:12;;;;;;;5.90;4.80;;;;;;;28.66;29.25;98958.52;106721;1265;67648;-40
2023/06/17 08:59:40;;;;;;;6.10;5.30;;;;;;;28.67;29.57;98960.42;106878;1265;72710;-41
2023/06/17 09:02:10;;;;;;;7.10;5.10;;;;;;;28.76;29.58;98959.97;106930;1261;59666;-40
2023/06/17 09:04:39;;;;;;;6.00;4.80;;;;;;;28.90;30.09;98957.52;106879;1261;60152;-40
2023/06/17 09:07:09;;;;;;;6.70;4.60;;;;;;;29.05;29.83;98953.65;106839;1261;73123;-40
2023/06/17 09:09:37;;;;;;;7.90;5.40;;;;;;;29.15;29.02;98950.62;106874;1260;67571;-40
2023/06/17 09:12:06;;;;;;;7.70;5.20;;;;;;;29.17;28.36;98945.36;106880;1261;72682;-41
2023/06/17 09:14:33;;;;;;;6.80;4.80;;;;;;;29.20;28.60;98944.27;107006;1263;60518;-41
2023/06/17 09:17:02;;;;;;;6.50;4.60;;;;;;;29.30;28.73;98948.42;106876;1260;59483;-40
2023/06/17 09:19:32;;;;;;;6.90;4.50;;;;;;;29.43;28.36;98950.35;107006;1264;73503;-40
2023/06/17 09:22:06;;;;;;;6.70;5.50;;;;;;;29.56;28.77;98945.36;106813;1261;67894;-40
2023/06/17 09:24:34;;;;;;;8.60;5.30;;;;;;;29.69;27.93;98942.19;106904;1260;72688;-41
2023/06/17 09:27:02;;;;;;;7.00;5.00;;;;;;;29.68;27.70;98947.39;106891;1260;59583;-41
2023/06/17 09:29:30;;;;;;;7.10;5.40;;;;;;;29.60;27.49;98949.60;106890;1260;60053;-40
2023/06/17 09:32:00;;;;;;;5.50;5.00;;;;;;;29.52;27.98;98952.09;106849;1261;73114;-41
2023/06/17 09:34:28;;;;;;;6.70;4.90;;;;;;;29.52;27.94;98943.45;106853;1266;67889;-40
2023/06/17 09:37:00;;;;;;;8.90;5.50;;;;;;;29.51;27.86;98947.45;106946;1264;72698;-40
2023/06/17 09:39:32;;;;;;;5.80;5.10;;;;;;;29.53;27.92;98945.08;106995;1265;59608;-40
2023/06/17 09:42:08;;;;;;;7.10;5.30;;;;;;;29.62;28.16;98934.36;106853;1261;60040;-40
2023/06/17 09:44:37;;;;;;;5.50;4.80;;;;;;;29.72;28.16;98933.72;106985;1260;73033;-40
2023/06/17 09:47:06;;;;;;;7.10;5.70;;;;;;;29.87;28.54;98934.66;106943;1261;68471;-41
2023/06/17 09:49:35;;;;;;;7.60;5.70;;;;;;;30.02;28.48;98934.89;106984;1260;71143;-40
2023/06/17 09:52:08;;;;;;;7.20;5.40;;;;;;;30.15;27.79;98931.89;106994;1260;59721;-40
2023/06/17 09:54:36;;;;;;;7.80;6.00;;;;;;;30.23;27.64;98933.40;106966;1261;59811;-40
2023/06/17 09:57:07;;;;;;;6.70;5.20;;;;;;;30.21;27.55;98931.10;107598;1260;73034;-40
2023/06/17 09:59:35;;;;;;;6.20;5.20;;;;;;;30.08;27.20;98929.32;106898;1261;66304;-40
2023/06/17 10:02:04;;;;;;;11.50;5.20;;;;;;;29.92;27.33;98926.41;107237;1257;72687;-40
2023/06/17 10:04:31;;;;;;;7.10;5.50;;;;;;;29.77;27.92;98928.70;107267;1257;60067;-40
2023/06/17 10:07:01;;;;;;;7.50;5.60;;;;;;;29.72;27.99;98926.25;107126;1257;60040;-40
2023/06/17 10:09:29;;;;;;;10.00;5.10;;;;;;;29.69;27.55;98927.70;107044;1262;73548;-39
2023/06/17 10:11:56;;;;;;;7.50;5.70;;;;;;;29.67;27.43;98923.31;107127;1260;66593;-40
2023/06/17 10:14:27;;;;;;;6.50;5.20;;;;;;;29.70;27.63;98927.09;106996;1257;72713;-40
2023/06/17 10:16:55;;;;;;;7.50;5.40;;;;;;;29.77;27.78;98922.00;107143;1259;59890;-41
2023/06/17 10:19:26;;;;;;;8.20;5.80;;;;;;;29.88;27.92;98922.16;106894;1257;59577;-41
2023/06/17 10:21:54;;;;;;;6.80;5.80;;;;;;;30.04;27.46;98927.02;107076;1257;73082;-41
2023/06/17 10:24:22;;;;;;;7.20;5.70;;;;;;;30.19;27.05;98923.42;107068;1258;66432;-41
2023/06/17 10:26:51;;;;;;;6.50;5.70;;;;;;;30.28;26.95;98924.73;107004;1258;72871;-41
2023/06/17 10:29:20;;;;;;;7.50;6.30;;;;;;;30.29;27.23;98915.82;107034;1261;60049;-41
2023/06/17 10:31:48;;;;;;;8.40;5.90;;;;;;;30.14;26.67;98917.15;107166;1257;61040;-41
2023/06/17 10:34:20;;;;;;;7.40;6.30;;;;;;;29.99;27.16;98923.85;107289;1257;73045;-41
2023/06/17 10:36:58;;;;;;;6.90;6.20;;;;;;;29.88;27.35;98919.06;107133;1257;66515;-41
2023/06/17 10:39:26;;;;;;;7.20;5.60;;;;;;;29.87;27.26;98915.94;107103;1257;72737;-40
2023/06/17 10:41:57;;;;;;;7.30;6.00;;;;;;;29.95;27.04;98913.81;107184;1257;59621;-40
2023/06/17 10:44:34;;;;;;;9.70;6.00;;;;;;;30.12;26.20;98909.27;107142;1257;60561;-40
2023/06/17 10:47:05;;;;;;;8.60;6.20;;;;;;;30.34;26.93;98906.27;107195;1260;73099;-40
2023/06/17 10:49:38;;;;;;;7.00;6.00;;;;;;;30.66;27.03;98907.48;107123;1259;66710;-40
2023/06/17 10:52:11;;;;;;;6.60;5.80;;;;;;;31.01;26.23;98901.09;107112;1264;71891;-41
2023/06/17 10:54:51;;;;;;;6.50;5.80;;;;;;;31.32;26.11;98900.85;107079;1257;60153;-40
2023/06/17 10:57:35;;;;;;;6.30;5.70;;;;;;;31.64;25.54;98899.27;107112;1257;59505;-41
2023/06/17 11:00:11;;;;;;;6.70;6.00;;;;;;;31.87;25.57;98899.80;107165;1257;71486;-41
2023/06/17 11:02:40;;;;;;;7.70;5.40;;;;;;;32.13;25.64;98903.11;107073;1261;68090;-40
2023/06/17 11:05:08;;;;;;;6.20;5.50;;;;;;;32.36;25.39;98905.19;106951;1260;73137;-41
2023/06/17 11:07:36;;;;;;;6.40;5.80;;;;;;;32.54;25.03;98906.30;107127;1257;60086;-41
2023/06/17 11:10:05;;;;;;;9.90;5.60;;;;;;;32.71;25.49;98902.17;107156;1262;60080;-41
2023/06/17 11:12:34;;;;;;;6.20;5.40;;;;;;;32.96;24.72;98902.99;107257;1257;73009;-41
2023/06/17 11:15:04;;;;;;;8.80;5.70;;;;;;;33.23;24.37;98897.05;107146;1262;66638;-40
2023/06/17 11:17:31;;;;;;;5.80;5.30;;;;;;;33.40;24.66;98898.05;107115;1262;72744;-41
2023/06/17 11:19:59;;;;;;;5.80;5.00;;;;;;;33.49;23.82;98894.23;107164;1257;59736;-41
2023/06/17 11:22:27;;;;;;;6.30;5.70;;;;;;;33.55;23.02;98889.61;107173;1257;60373;-42
2023/06/17 11:24:57;;;;;;;8.20;5.60;;;;;;;33.73;23.29;98883.80;107153;1258;73492;-42
2023/06/17 11:27:25;;;;;;;7.00;5.80;;;;;;;33.98;22.56;98884.36;107087;1257;67623;-41
2023/06/17 11:29:53;;;;;;;6.60;5.50;;;;;;;33.97;22.78;98884.11;107138;1262;72675;-41
2023/06/17 11:32:21;;;;;;;5.30;4.80;;;;;;;33.95;23.32;98884.20;107092;1258;60095;-42